createdAt,value
2023-02-17T00:00:02.802Z,16.21
2023-02-17T00:01:02.834Z,16.24
2023-02-17T00:02:02.789Z,16.21
2023-02-17T00:03:02.804Z,16.26
2023-02-17T00:04:02.778Z,16.20
2023-02-17T00:05:02.791Z,16.26
2023-02-17T00:06:02.784Z,16.26
2023-02-17T00:07:02.822Z,16.18
2023-02-17T00:08:02.757Z,16.24
2023-02-17T00:09:02.766Z,16.24
2023-02-17T00:10:02.752Z,16.20
2023-02-17T00:11:02.728Z,16.24
2023-02-17T00:12:02.731Z,16.27
2023-02-17T00:13:02.742Z,16.23
2023-02-17T00:14:02.739Z,16.21
2023-02-17T00:15:02.692Z,16.26
2023-02-17T00:16:02.715Z,16.26
2023-02-17T00:17:02.708Z,16.23
2023-02-17T00:18:02.726Z,16.24
2023-02-17T00:19:02.682Z,16.26
2023-02-17T00:20:02.692Z,16.23
2023-02-17T00:21:02.663Z,16.20
2023-02-17T00:22:02.652Z,16.18
2023-02-17T00:23:02.637Z,16.18
2023-02-17T00:24:02.627Z,16.29
2023-02-17T00:25:02.623Z,16.26
2023-02-17T00:26:02.621Z,16.20
2023-02-17T00:27:02.650Z,16.26
2023-02-17T00:35:03.203Z,16.29
2023-02-17T02:48:02.646Z,16.38
2023-02-17T02:49:02.750Z,16.41
2023-02-17T02:50:02.782Z,16.36
2023-02-17T02:51:02.822Z,16.42
2023-02-17T02:52:02.820Z,16.38
2023-02-17T02:53:02.859Z,16.36
2023-02-17T02:54:03.406Z,16.47
2023-02-17T02:55:02.936Z,16.42
2023-02-17T02:56:02.980Z,16.41
2023-02-17T02:57:02.963Z,16.37
2023-02-17T02:58:03.011Z,16.41
2023-02-17T02:59:03.070Z,16.45
2023-02-17T03:00:03.036Z,16.39
2023-02-17T03:01:03.177Z,16.36
2023-02-17T03:31:03.678Z,16.48
2023-02-17T03:32:03.768Z,16.44
2023-02-17T03:33:03.713Z,16.41
2023-02-17T03:34:03.734Z,16.47
2023-02-17T03:35:03.761Z,16.48
2023-02-17T03:36:03.959Z,16.48
2023-02-17T03:37:03.818Z,16.48
2023-02-17T03:38:03.821Z,16.44
2023-02-17T03:39:03.852Z,16.45
2023-02-17T03:40:03.856Z,16.44
2023-02-17T03:41:03.873Z,16.44
2023-02-17T03:42:03.899Z,16.41
2023-02-17T03:43:03.933Z,16.45
2023-02-17T03:44:04.304Z,16.44
2023-02-17T03:45:04.017Z,16.44
2023-02-17T03:46:04.199Z,16.45
2023-02-17T03:47:04.056Z,16.48
2023-02-17T03:48:04.081Z,16.48
2023-02-17T03:49:04.099Z,16.44
2023-02-17T03:50:04.077Z,16.45
2023-02-17T03:51:04.099Z,16.48
2023-02-17T03:52:04.144Z,16.42
2023-02-17T03:53:04.166Z,16.45
2023-02-17T03:54:04.165Z,16.45
2023-02-17T03:55:04.211Z,16.44
2023-02-17T03:56:04.690Z,16.45
2023-02-17T03:57:04.281Z,16.44
2023-02-17T03:58:04.259Z,16.50
2023-02-17T03:59:04.290Z,16.48
2023-02-17T04:00:04.356Z,16.45
2023-02-17T04:01:04.368Z,16.47
2023-02-17T04:02:04.385Z,16.48
2023-02-17T04:03:04.401Z,16.47
2023-02-17T04:04:04.443Z,16.50
2023-02-17T04:05:04.446Z,16.47
2023-02-17T04:06:04.911Z,16.45
2023-02-17T04:07:04.494Z,16.45
2023-02-17T04:08:04.516Z,16.47
2023-02-17T04:09:04.582Z,16.47
2023-02-17T04:10:06.250Z,16.45
2023-02-17T04:11:04.716Z,16.50
2023-02-17T04:12:04.759Z,16.48
2023-02-17T04:13:04.795Z,16.42
2023-02-17T04:14:04.797Z,16.48
2023-02-17T04:15:04.810Z,16.47
2023-02-17T04:16:05.460Z,16.50
2023-02-17T04:17:04.867Z,16.48
2023-02-17T04:18:04.898Z,16.48
2023-02-17T04:19:04.945Z,16.42
2023-02-17T04:20:04.976Z,16.47
2023-02-17T04:21:05.049Z,16.48
2023-02-17T04:22:05.045Z,16.44
2023-02-17T04:23:05.114Z,16.48
2023-02-17T04:24:05.171Z,16.50
2023-02-17T04:25:05.179Z,16.53
2023-02-17T04:26:05.515Z,16.51
2023-02-17T04:27:05.196Z,16.48
2023-02-17T04:28:05.215Z,16.44
2023-02-17T04:29:05.267Z,16.44
2023-02-17T04:30:05.324Z,16.45
2023-02-17T04:31:05.396Z,16.50
2023-02-17T04:32:05.307Z,16.47
2023-02-17T04:33:05.320Z,16.48
2023-02-17T04:34:05.306Z,16.48
2023-02-17T04:35:05.392Z,16.45
2023-02-17T04:36:05.685Z,16.41
2023-02-17T04:37:05.484Z,16.48
2023-02-17T04:38:05.504Z,16.42
2023-02-17T04:39:05.531Z,16.45
2023-02-17T04:40:05.564Z,16.48
2023-02-17T04:41:05.620Z,16.50
2023-02-17T04:42:05.653Z,16.45
2023-02-17T04:43:05.692Z,16.45
2023-02-17T04:44:05.729Z,16.41
2023-02-17T04:45:05.777Z,16.44
2023-02-17T04:46:06.271Z,16.42
2023-02-17T04:47:05.845Z,16.43
2023-02-17T04:48:05.878Z,16.44
2023-02-17T04:49:05.977Z,16.38
2023-02-17T04:50:06.843Z,16.41
2023-02-17T04:51:06.041Z,16.39
2023-02-17T04:52:06.063Z,16.34
2023-02-17T04:53:06.134Z,16.40
2023-02-17T04:54:06.197Z,16.44
2023-02-17T04:55:06.288Z,16.38
2023-02-17T04:56:06.682Z,16.41
2023-02-17T04:57:06.408Z,16.40
2023-02-17T04:58:06.460Z,16.35
2023-02-17T04:59:06.543Z,16.37
2023-02-17T05:00:06.572Z,16.37
2023-02-17T05:01:06.682Z,16.34
2023-02-17T05:02:06.714Z,16.35
2023-02-17T05:03:06.788Z,16.37
2023-02-17T05:04:06.890Z,16.35
2023-02-17T05:05:06.944Z,16.34
2023-02-17T05:06:07.291Z,16.34
2023-02-17T05:07:07.042Z,16.34
2023-02-17T05:08:07.121Z,16.34
2023-02-17T05:09:07.171Z,16.28
2023-02-17T05:10:07.205Z,16.32
2023-02-17T05:11:07.294Z,16.34
2023-02-17T05:12:07.323Z,16.31
2023-02-17T05:13:07.403Z,16.31
2023-02-17T05:14:07.476Z,16.29
2023-02-17T05:15:07.554Z,16.32
2023-02-17T05:16:07.994Z,16.30
2023-02-17T05:17:07.642Z,16.31
2023-02-17T05:18:07.699Z,16.25
2023-02-17T05:19:07.804Z,16.31
2023-02-17T05:20:07.860Z,16.27
2023-02-17T05:21:07.926Z,16.30
2023-02-17T05:22:07.985Z,16.31
2023-02-17T06:01:17.307Z,16.24
2023-02-17T06:02:10.334Z,16.22
2023-02-17T06:03:10.394Z,16.27
2023-02-17T06:04:10.303Z,16.22
2023-02-17T06:05:10.383Z,16.27
2023-02-17T06:06:10.293Z,16.26
2023-02-17T06:07:10.296Z,16.22
2023-02-17T06:08:10.303Z,16.24
2023-02-17T06:09:10.267Z,16.27
2023-02-17T06:10:10.273Z,16.24
2023-02-17T06:11:10.284Z,16.26
2023-02-17T06:12:10.259Z,16.24
2023-02-17T06:13:10.275Z,16.26
2023-02-17T06:14:10.248Z,16.28
2023-02-17T06:15:10.242Z,16.21
2023-02-17T06:16:10.391Z,16.24
2023-02-17T06:17:10.235Z,16.27
2023-02-17T06:18:10.234Z,16.26
2023-02-17T06:19:10.218Z,16.20
2023-02-17T06:20:10.247Z,16.20
2023-02-17T06:21:10.196Z,16.28
2023-02-17T06:22:10.196Z,16.24
2023-02-17T06:23:10.203Z,16.18
2023-02-17T06:24:10.176Z,16.22
2023-02-17T06:25:10.198Z,16.27
2023-02-17T06:26:10.228Z,16.23
2023-02-17T06:27:10.273Z,16.23
2023-02-17T06:28:10.336Z,16.21
2023-02-17T06:29:10.382Z,16.21
2023-02-17T06:30:10.468Z,16.24
2023-02-17T06:31:10.591Z,16.23
2023-02-17T06:32:10.586Z,16.29
2023-02-17T06:33:10.581Z,16.24
2023-02-17T06:34:10.660Z,16.18
2023-02-17T06:35:10.711Z,16.27
2023-02-17T06:36:10.758Z,16.23
2023-02-17T06:37:10.799Z,16.23
2023-02-17T06:38:10.892Z,16.20
2023-02-17T06:39:10.880Z,16.23
2023-02-17T06:40:11.002Z,16.26
2023-02-17T06:41:10.997Z,16.20
2023-02-17T06:42:11.048Z,16.30
2023-02-17T06:43:11.064Z,16.23
2023-02-17T06:44:11.148Z,16.26
2023-02-17T06:45:11.171Z,16.27
2023-02-17T06:46:11.291Z,16.24
2023-02-17T06:47:11.304Z,16.21
2023-02-17T06:48:11.349Z,16.23
2023-02-17T06:49:11.415Z,16.27
2023-02-17T06:50:11.472Z,16.24
2023-02-17T06:51:11.499Z,16.29
2023-02-17T06:52:11.561Z,16.21
2023-02-17T06:53:11.600Z,16.21
2023-02-17T06:54:11.661Z,16.21
2023-02-17T06:55:11.717Z,16.23
2023-02-17T06:56:11.753Z,16.24
2023-02-17T06:57:11.825Z,16.21
2023-02-17T06:58:11.893Z,16.21
2023-02-17T06:59:11.937Z,16.26
2023-02-17T07:00:11.972Z,16.25
2023-02-17T07:01:12.009Z,16.23
2023-02-17T07:02:12.252Z,16.21
2023-02-17T07:03:12.196Z,16.21
2023-02-17T07:04:12.182Z,16.21
2023-02-17T07:05:12.243Z,16.23
2023-02-17T07:06:12.265Z,16.26
2023-02-17T07:07:12.365Z,16.26
2023-02-17T07:08:12.418Z,16.21
2023-02-17T07:09:12.454Z,16.21
2023-02-17T07:10:12.496Z,16.26
2023-02-17T07:11:12.535Z,16.25
2023-02-17T07:13:12.656Z,16.26
2023-02-17T07:14:12.680Z,16.21
2023-02-17T07:15:12.716Z,16.23
2023-02-17T07:16:12.780Z,16.23
2023-02-17T07:17:12.913Z,16.25
2023-02-17T07:18:12.909Z,16.21
2023-02-17T07:19:13.009Z,16.26
2023-02-17T07:20:13.043Z,16.23
2023-02-17T07:21:13.046Z,16.26
2023-02-17T07:22:13.096Z,16.25
2023-02-17T07:23:13.141Z,16.25
2023-02-17T07:24:13.184Z,16.23
2023-02-17T07:25:13.242Z,16.23
2023-02-17T07:26:13.306Z,16.28
2023-02-17T07:27:13.359Z,16.31
2023-02-17T07:28:13.388Z,16.26
2023-02-17T07:29:13.457Z,16.29
2023-02-17T07:30:13.518Z,16.25
2023-02-17T07:31:13.681Z,16.25
2023-02-17T07:32:13.574Z,16.26
2023-02-17T07:33:13.612Z,16.25
2023-02-17T07:34:13.685Z,16.31
2023-02-17T07:35:13.744Z,16.23
2023-02-17T07:36:13.783Z,16.26
2023-02-17T07:37:13.807Z,16.29
2023-02-17T07:38:13.885Z,16.29
2023-02-17T07:39:13.924Z,16.28
2023-02-17T07:40:14.014Z,16.32
2023-02-17T07:41:14.055Z,16.31
2023-02-17T07:42:14.066Z,16.35
2023-02-17T07:43:14.114Z,16.34
2023-02-17T07:44:14.198Z,16.35
2023-02-17T07:45:14.195Z,16.34
2023-02-17T07:46:14.349Z,16.32
2023-02-17T07:47:14.309Z,16.40
2023-02-17T07:48:14.358Z,16.40
2023-02-17T07:49:14.405Z,16.32
2023-02-17T07:50:14.476Z,16.43
2023-02-17T07:51:14.497Z,16.40
2023-02-17T07:52:14.568Z,16.44
2023-02-17T07:53:14.614Z,16.43
2023-02-17T07:54:14.643Z,16.43
2023-02-17T07:55:14.699Z,16.46
2023-02-17T07:56:14.778Z,16.49
2023-02-17T07:57:14.799Z,16.43
2023-02-17T07:58:14.835Z,16.47
2023-02-17T07:59:14.903Z,16.52
2023-02-17T08:00:14.945Z,16.52
2023-02-17T08:01:14.962Z,16.47
2023-02-17T08:02:15.092Z,16.52
2023-02-17T08:03:15.098Z,16.55
2023-02-17T08:04:15.123Z,16.51
2023-02-17T08:05:15.198Z,16.54
2023-02-17T08:06:15.204Z,16.61
2023-02-17T08:07:15.243Z,16.57
2023-02-17T08:08:15.300Z,16.57
2023-02-17T08:09:15.351Z,16.66
2023-02-17T08:10:15.417Z,16.63
2023-02-17T08:11:15.448Z,16.58
2023-02-17T08:12:15.488Z,16.68
2023-02-17T08:13:15.528Z,16.64
2023-02-17T08:14:15.545Z,16.66
2023-02-17T08:15:15.610Z,16.63
2023-02-17T08:16:15.712Z,16.64
2023-02-17T08:17:15.731Z,16.63
2023-02-17T08:18:15.756Z,16.68
2023-02-17T08:19:15.807Z,16.71
2023-02-17T08:20:15.841Z,16.60
2023-02-17T08:21:15.888Z,16.69
2023-02-17T08:22:15.923Z,16.64
2023-02-17T08:23:15.991Z,16.66
2023-02-17T08:24:15.993Z,16.66
2023-02-17T08:25:16.072Z,16.68
2023-02-17T08:26:16.142Z,16.64
2023-02-17T08:27:16.161Z,16.74
2023-02-17T08:28:16.183Z,16.71
2023-02-17T08:29:16.239Z,16.68
2023-02-17T08:30:16.337Z,16.71
2023-02-17T08:31:16.386Z,16.64
2023-02-17T08:32:16.452Z,16.60
2023-02-17T08:33:16.410Z,16.71
2023-02-17T08:34:16.444Z,16.60
2023-02-17T08:35:16.496Z,16.63
2023-02-17T08:36:16.515Z,16.64
2023-02-17T08:37:16.588Z,16.66
2023-02-17T08:38:16.644Z,16.65
2023-02-17T08:39:16.668Z,16.60
2023-02-17T08:40:16.705Z,16.63
2023-02-17T08:41:16.783Z,16.63
2023-02-17T08:42:16.805Z,16.57
2023-02-17T08:43:16.887Z,16.60
2023-02-17T08:44:16.952Z,16.55
2023-02-17T08:45:16.966Z,16.60
2023-02-17T08:46:17.046Z,16.54
2023-02-17T08:47:17.046Z,16.54
2023-02-17T08:48:17.110Z,16.60
2023-02-17T08:49:17.159Z,16.52
2023-02-17T08:50:17.198Z,16.48
2023-02-17T08:51:17.206Z,16.55
2023-02-17T08:52:17.269Z,16.55
2023-02-17T08:53:17.350Z,16.52
2023-02-17T08:54:17.367Z,16.55
2023-02-17T08:55:17.405Z,16.55
2023-02-17T08:56:17.470Z,16.60
2023-02-17T08:57:17.532Z,16.69
2023-02-17T08:58:17.581Z,16.65
2023-02-17T08:59:17.563Z,16.71
2023-02-17T09:00:17.618Z,16.82
2023-02-17T09:01:17.692Z,16.82
2023-02-17T09:02:17.705Z,16.75
2023-02-17T09:03:17.770Z,16.77
2023-02-17T09:06:17.863Z,16.80
2023-02-17T09:07:17.928Z,16.80
2023-02-17T09:08:18.003Z,16.86
2023-02-17T09:09:18.022Z,16.78
2023-02-17T09:10:18.019Z,16.82
2023-02-17T09:11:18.072Z,16.85
2023-02-17T09:12:18.111Z,16.89
2023-02-17T09:13:18.130Z,16.82
2023-02-17T09:14:18.227Z,16.81
2023-02-17T09:15:18.303Z,16.82
2023-02-17T09:16:18.311Z,16.86
2023-02-17T09:17:18.313Z,16.82
2023-02-17T09:18:18.405Z,16.83
2023-02-17T09:19:18.379Z,16.82
2023-02-17T09:20:24.778Z,16.91
2023-02-17T09:21:19.402Z,16.83
2023-02-17T09:22:31.173Z,16.94
2023-02-17T09:23:19.384Z,16.91
2023-02-17T09:24:18.386Z,16.88
2023-02-17T09:25:18.438Z,16.89
2023-02-17T09:26:18.383Z,16.87
2023-02-17T09:27:18.358Z,16.97
2023-02-17T09:28:18.369Z,16.94
2023-02-17T09:29:18.394Z,16.89
2023-02-17T09:30:18.461Z,16.89
2023-02-17T09:35:18.399Z,16.85
2023-02-17T09:36:18.392Z,16.83
2023-02-17T09:37:18.366Z,16.85
2023-02-17T09:38:18.553Z,16.79
2023-02-17T09:39:18.452Z,16.82
2023-02-17T09:40:18.489Z,16.83
2023-02-17T09:46:18.771Z,16.96
2023-02-17T09:47:18.828Z,16.96
2023-02-17T09:48:18.806Z,16.89
2023-02-17T09:49:18.784Z,16.97
2023-02-17T09:50:18.805Z,16.97
2023-02-17T09:51:18.894Z,16.96
2023-02-17T09:52:18.876Z,16.91
2023-02-17T09:53:18.905Z,16.94
2023-02-17T09:54:19.036Z,16.93
2023-02-17T09:55:19.001Z,16.92
2023-02-17T09:56:19.832Z,16.97
2023-02-17T09:57:19.126Z,16.97
2023-02-17T09:58:19.060Z,17.02
2023-02-17T09:59:19.081Z,17.09
2023-02-17T10:00:19.204Z,17.02
2023-02-17T10:01:19.145Z,17.03
2023-02-17T10:02:19.179Z,17.00
2023-02-17T10:03:19.247Z,16.98
2023-02-17T10:04:19.414Z,16.95
2023-02-17T10:05:19.292Z,16.97
2023-02-17T10:06:19.378Z,17.05
2023-02-17T10:07:19.325Z,17.02
2023-02-17T10:08:19.349Z,16.98
2023-02-17T10:09:19.463Z,16.96
2023-02-17T10:10:19.472Z,17.09
2023-02-17T10:11:19.415Z,17.02
2023-02-17T10:12:19.487Z,17.02
2023-02-17T10:13:19.538Z,16.96
2023-02-17T10:14:19.553Z,17.03
2023-02-17T10:15:19.630Z,17.11
2023-02-17T10:16:19.594Z,17.08
2023-02-17T10:17:19.666Z,16.97
2023-02-17T10:18:19.651Z,17.03
2023-02-17T10:19:19.699Z,17.03
2023-02-17T10:20:19.793Z,17.06
2023-02-17T10:21:19.755Z,17.00
2023-02-17T10:22:19.813Z,17.05
2023-02-17T10:23:19.752Z,17.06
2023-02-17T10:24:19.821Z,17.03
2023-02-17T10:25:19.810Z,17.09
2023-02-17T10:26:19.918Z,17.08
2023-02-17T10:27:19.870Z,17.11
2023-02-17T10:28:19.895Z,17.07
2023-02-17T10:29:19.985Z,17.06
2023-02-17T10:30:20.037Z,17.08
2023-02-17T10:31:20.074Z,17.14
2023-02-17T10:32:20.378Z,17.05
2023-02-17T10:33:20.018Z,17.14
2023-02-17T10:34:20.044Z,17.11
2023-02-17T10:35:20.188Z,17.08
2023-02-17T10:36:20.076Z,17.12
2023-02-17T10:37:20.080Z,17.08
2023-02-17T10:38:20.113Z,17.07
2023-02-17T10:39:20.151Z,17.09
2023-02-17T10:40:20.324Z,17.05
2023-02-17T10:41:20.191Z,17.08
2023-02-17T10:42:20.251Z,17.02
2023-02-17T10:43:20.223Z,17.07
2023-02-17T10:44:20.259Z,17.07
2023-02-17T10:45:20.307Z,17.08
2023-02-17T10:46:20.337Z,17.07
2023-02-17T10:47:20.363Z,17.08
2023-02-17T10:48:20.377Z,17.03
2023-02-17T10:49:20.391Z,17.08
2023-02-17T10:50:20.469Z,17.11
2023-02-17T10:51:20.443Z,17.07
2023-02-17T10:52:20.456Z,17.08
2023-02-17T10:53:20.537Z,17.03
2023-02-17T10:54:20.504Z,17.02
2023-02-17T10:55:23.225Z,17.01
2023-02-17T10:56:20.573Z,17.02
2023-02-17T10:57:20.508Z,17.03
2023-02-17T10:58:20.571Z,17.03
2023-02-17T10:59:20.516Z,17.03
2023-02-17T11:00:20.553Z,17.05
2023-02-17T11:01:20.613Z,17.02
2023-02-17T11:02:20.512Z,17.02
2023-02-17T11:03:20.584Z,17.02
2023-02-17T11:04:20.457Z,17.02
2023-02-17T11:05:20.976Z,17.02
2023-02-17T11:06:20.496Z,17.03
2023-02-17T11:07:20.481Z,17.05
2023-02-17T11:08:20.448Z,17.06
2023-02-17T11:09:20.462Z,17.06
2023-02-17T11:10:20.496Z,17.03
2023-02-17T11:11:20.461Z,17.09
2023-02-17T11:12:20.406Z,17.03
2023-02-17T11:13:20.407Z,17.05
2023-02-17T11:14:20.416Z,17.00
2023-02-17T11:15:20.411Z,17.06
2023-02-17T11:16:20.404Z,17.08
2023-02-17T11:17:20.384Z,17.03
2023-02-17T11:18:20.362Z,17.04
2023-02-17T11:19:20.374Z,17.06
2023-02-17T11:20:20.383Z,17.08
2023-02-17T11:21:20.360Z,17.03
2023-02-17T11:22:20.328Z,17.03
2023-02-17T11:23:20.350Z,17.09
2023-02-17T11:24:20.362Z,17.03
2023-02-17T11:25:20.360Z,16.98
2023-02-17T11:26:20.304Z,16.99
2023-02-17T11:27:20.332Z,17.00
2023-02-17T11:28:21.732Z,16.93
2023-02-17T11:29:20.476Z,16.97
2023-02-17T11:30:20.639Z,17.02
2023-02-17T11:31:20.611Z,16.93
2023-02-17T11:32:20.734Z,16.96
2023-02-17T11:33:20.600Z,16.97
2023-02-17T11:34:20.656Z,17.00
2023-02-17T11:35:20.688Z,16.96
2023-02-17T11:36:20.757Z,16.96
2023-02-17T11:50:31.975Z,16.93
2023-02-17T11:51:22.135Z,16.85
2023-02-17T11:52:23.740Z,16.87
2023-02-17T11:53:21.101Z,16.88
2023-02-17T11:54:21.111Z,16.85
2023-02-17T11:55:21.095Z,16.85
2023-02-17T11:56:21.114Z,16.87
2023-02-17T11:57:21.087Z,16.90
2023-02-17T11:58:21.095Z,16.88
2023-02-17T11:59:21.092Z,16.85
2023-02-17T12:00:21.079Z,16.84
2023-02-17T12:01:21.042Z,16.87
2023-02-17T12:02:21.042Z,16.84
2023-02-17T12:03:21.071Z,16.82
2023-02-17T12:04:21.035Z,16.82
2023-02-17T12:05:21.025Z,16.82
2023-02-17T12:44:20.721Z,16.93
2023-02-17T13:52:22.658Z,16.98
2023-02-17T13:53:22.778Z,16.96
2023-02-17T13:54:22.741Z,16.98
2023-02-17T13:55:22.821Z,16.98
2023-02-17T13:56:22.814Z,16.98
2023-02-17T13:57:22.868Z,16.98
2023-02-17T13:58:22.918Z,17.01
2023-02-17T13:59:22.962Z,17.02
2023-02-17T14:00:23.023Z,16.95
2023-02-17T14:01:23.082Z,16.97
2023-02-17T14:02:35.409Z,17.00
2023-02-17T14:03:24.073Z,16.98
2023-02-17T14:04:23.132Z,17.03
2023-02-17T14:05:23.061Z,17.00
2023-02-17T14:06:23.058Z,17.00
2023-02-17T14:07:23.066Z,16.95
2023-02-17T14:08:23.055Z,16.97
2023-02-17T14:09:23.054Z,17.03
2023-02-17T14:10:23.048Z,16.98
2023-02-17T14:11:23.037Z,16.98
2023-02-17T14:12:23.027Z,17.00
2023-02-17T14:13:23.021Z,17.00
2023-02-17T14:14:23.054Z,17.04
2023-02-17T14:15:23.088Z,17.07
2023-02-17T14:16:23.151Z,17.04
2023-02-17T14:17:23.213Z,17.06
2023-02-17T14:18:23.251Z,17.03
2023-02-17T14:19:23.303Z,17.07
2023-02-17T14:20:23.362Z,17.04
2023-02-17T14:21:23.400Z,17.09
2023-02-17T14:22:23.443Z,17.04
2023-02-17T14:23:23.508Z,17.07
2023-02-17T14:24:23.533Z,17.09
2023-02-17T14:25:23.594Z,17.12
2023-02-17T14:26:23.645Z,17.09
2023-02-17T14:27:23.668Z,17.09
2023-02-17T14:28:23.726Z,17.09
2023-02-17T14:29:23.804Z,17.01
2023-02-17T14:30:23.830Z,17.07
2023-02-17T14:31:23.979Z,17.04
2023-02-17T14:32:23.898Z,17.04
2023-02-17T14:33:23.943Z,17.10
2023-02-17T14:34:23.990Z,17.12
2023-02-17T14:35:24.036Z,17.19
2023-02-17T14:36:24.106Z,17.14
2023-02-17T14:37:24.132Z,17.16
2023-02-17T14:38:24.206Z,17.12
2023-02-17T14:39:24.250Z,17.18
2023-02-17T14:40:24.240Z,17.19
2023-02-17T14:41:24.303Z,17.14
2023-02-17T14:42:24.373Z,17.14
2023-02-17T14:43:24.400Z,17.14
2023-02-17T14:44:24.434Z,17.11
2023-02-17T14:45:24.522Z,17.14
2023-02-17T14:46:24.577Z,17.19
2023-02-17T14:47:24.608Z,17.14
2023-02-17T14:48:26.157Z,17.22
2023-02-17T14:49:24.693Z,17.25
2023-02-17T14:50:24.640Z,17.19
2023-02-17T14:51:24.635Z,17.24
2023-02-17T14:52:24.643Z,17.22
2023-02-17T14:53:24.622Z,17.16
2023-02-17T14:54:26.392Z,17.22
2023-02-17T14:55:24.650Z,17.22
2023-02-17T14:56:24.701Z,17.25
2023-02-17T14:57:24.749Z,17.19
2023-02-17T14:58:24.788Z,17.28
2023-02-17T14:59:24.796Z,17.30
2023-02-17T15:00:26.918Z,17.30
2023-02-17T15:01:24.918Z,17.33
2023-02-17T15:02:24.838Z,17.34
2023-02-17T15:03:24.816Z,17.33
2023-02-17T15:04:24.820Z,17.32
2023-02-17T15:05:24.837Z,17.34
2023-02-17T15:06:27.957Z,17.28
2023-02-17T15:07:24.818Z,17.32
2023-02-17T15:08:24.823Z,17.35
2023-02-17T15:09:24.792Z,17.32
2023-02-17T15:10:24.786Z,17.34
2023-02-17T15:11:24.777Z,17.32
2023-02-17T15:12:27.100Z,17.37
2023-02-17T15:13:24.822Z,17.37
2023-02-17T15:14:24.768Z,17.38
2023-02-17T15:15:24.798Z,17.39
2023-02-17T15:16:24.825Z,17.35
2023-02-17T15:17:24.750Z,17.37
2023-02-17T15:18:27.047Z,17.41
2023-02-17T15:19:24.753Z,17.41
2023-02-17T15:20:24.720Z,17.41
2023-02-17T15:21:24.723Z,17.45
2023-02-17T15:22:24.715Z,17.45
2023-02-17T15:23:24.717Z,17.46
2023-02-17T15:24:27.075Z,17.47
2023-02-17T15:25:24.669Z,17.53
2023-02-17T15:26:24.677Z,17.56
2023-02-17T15:27:24.680Z,17.61
2023-02-17T15:28:24.681Z,17.61
2023-02-17T15:29:24.868Z,17.63
2023-02-17T15:31:24.717Z,17.59
2023-02-17T15:32:24.690Z,17.66
2023-02-17T15:33:24.668Z,17.64
2023-02-17T15:34:24.619Z,17.66
2023-02-17T15:35:24.590Z,17.67
2023-02-17T15:36:24.619Z,17.63
2023-02-17T15:37:24.655Z,17.66
2023-02-17T15:38:24.725Z,17.70
2023-02-17T15:39:24.758Z,17.67
2023-02-17T15:40:24.839Z,17.72
2023-02-17T15:41:24.862Z,17.73
2023-02-17T15:42:24.959Z,17.68
2023-02-17T15:43:24.989Z,17.70
2023-02-17T15:44:25.021Z,17.75
2023-02-17T15:45:25.115Z,17.74
2023-02-17T15:46:25.172Z,17.76
2023-02-17T15:47:25.226Z,17.84
2023-02-17T15:48:25.294Z,17.73
2023-02-17T15:49:25.341Z,17.76
2023-02-17T15:50:25.421Z,17.79
2023-02-17T15:51:25.456Z,17.79
2023-02-17T15:52:25.539Z,17.82
2023-02-17T15:53:25.561Z,17.79
2023-02-17T15:54:25.603Z,17.84
2023-02-17T15:55:25.686Z,17.84
2023-02-17T15:56:25.809Z,17.85
2023-02-17T15:57:25.821Z,17.82
2023-02-17T15:58:25.844Z,17.80
2023-02-17T15:59:25.939Z,17.81
2023-02-17T16:00:25.959Z,17.82
2023-02-17T16:07:26.408Z,17.91
2023-02-17T16:08:26.486Z,17.90
2023-02-17T16:09:26.535Z,17.94
2023-02-17T16:10:26.606Z,17.88
2023-02-17T16:11:26.658Z,17.92
2023-02-17T16:24:27.489Z,17.97
2023-02-17T16:25:27.536Z,17.99
2023-02-17T16:26:27.622Z,17.99
2023-02-17T16:27:27.686Z,18.01
2023-02-17T16:28:27.720Z,17.97
2023-02-17T16:29:27.802Z,18.01
2023-02-17T16:30:27.869Z,18.00
2023-02-17T16:31:27.989Z,17.98
2023-02-17T16:32:28.141Z,17.98
2023-02-17T16:33:28.062Z,18.05
2023-02-17T16:34:28.103Z,18.08
2023-02-17T16:35:28.166Z,18.03
2023-02-17T16:36:28.227Z,18.01
2023-02-17T16:37:28.312Z,18.03
2023-02-17T16:38:28.328Z,18.05
2023-02-17T16:39:28.395Z,18.08
2023-02-17T16:40:28.475Z,18.05
2023-02-17T16:41:28.537Z,18.07
2023-02-17T16:43:28.657Z,18.09
2023-02-17T16:44:28.731Z,18.09
2023-02-17T16:45:28.810Z,18.06
2023-02-17T16:46:28.901Z,18.07
2023-02-17T16:47:28.912Z,18.12
2023-02-17T16:48:28.944Z,18.07
2023-02-17T16:49:29.020Z,18.07
2023-02-17T16:50:29.110Z,18.09
2023-02-17T16:51:29.169Z,18.14
2023-02-17T16:53:29.295Z,18.15
2023-02-17T16:54:29.343Z,18.07
2023-02-17T16:55:29.402Z,18.12
2023-02-17T16:56:29.508Z,18.14
2023-02-17T16:57:29.536Z,18.13
2023-02-17T16:58:29.592Z,18.13
2023-02-17T16:59:29.626Z,18.10
2023-02-17T17:01:29.790Z,18.16
2023-02-17T17:02:29.883Z,18.10
2023-02-17T17:03:29.941Z,18.07
2023-02-17T17:04:29.935Z,18.13
2023-02-17T17:06:30.087Z,18.10
2023-02-17T17:07:30.132Z,18.12
2023-02-17T17:08:30.202Z,18.13
2023-02-17T17:09:30.251Z,18.09
2023-02-17T17:10:30.316Z,18.13
2023-02-17T17:11:30.353Z,18.16
2023-02-17T17:12:30.437Z,18.18
2023-02-17T17:13:30.498Z,18.18
2023-02-17T17:48:32.668Z,18.24
2023-02-17T17:49:32.731Z,18.24
2023-02-17T17:50:32.822Z,18.19
2023-02-17T17:51:32.860Z,18.25
2023-02-17T17:52:32.951Z,18.24
2023-02-17T17:53:32.946Z,18.22
2023-02-17T17:54:33.033Z,18.18
2023-02-17T17:55:33.088Z,18.23
2023-02-17T17:56:33.149Z,18.25
2023-02-17T17:57:33.188Z,18.21
2023-02-17T17:58:33.226Z,18.27
2023-02-17T17:59:33.309Z,18.26
2023-02-17T18:00:33.401Z,18.26
2023-02-17T18:01:33.436Z,18.26
2023-02-17T18:02:33.483Z,18.25
2023-02-17T18:03:33.510Z,18.33
2023-02-17T18:04:33.648Z,18.28
2023-02-17T18:05:33.578Z,18.31
2023-02-17T18:06:33.636Z,18.31
2023-02-17T18:07:35.666Z,18.28
2023-02-17T18:08:33.699Z,18.29
2023-02-17T18:09:33.661Z,18.37
2023-02-17T18:10:33.672Z,18.34
2023-02-17T18:11:33.644Z,18.34
2023-02-17T18:12:33.660Z,18.27
2023-02-17T18:13:33.631Z,18.33
2023-02-17T18:14:33.628Z,18.34
2023-02-17T18:15:33.685Z,18.34
2023-02-17T18:16:33.642Z,18.32
2023-02-17T18:17:33.628Z,18.32
2023-02-17T18:18:33.632Z,18.36
2023-02-17T18:19:33.598Z,18.32
2023-02-17T18:20:33.602Z,18.36
2023-02-17T18:21:33.592Z,18.32
2023-02-17T18:22:33.603Z,18.34
2023-02-17T18:23:33.613Z,18.34
2023-02-17T18:24:33.577Z,18.36
2023-02-17T18:25:33.569Z,18.37
2023-02-17T18:26:33.593Z,18.40
2023-02-17T18:27:33.572Z,18.40
2023-02-17T18:28:33.533Z,18.31
2023-02-17T18:29:33.561Z,18.37
2023-02-17T18:30:33.580Z,18.39
2023-02-17T18:31:33.664Z,18.37
2023-02-17T18:32:33.537Z,18.37
2023-02-17T18:33:33.525Z,18.34
2023-02-17T18:34:33.510Z,18.34
2023-02-17T18:35:33.516Z,18.39
2023-02-17T18:36:33.474Z,18.36
2023-02-17T18:37:33.488Z,18.42
2023-02-17T18:38:33.495Z,18.43
2023-02-17T18:39:33.475Z,18.37
2023-02-17T18:40:33.476Z,18.37
2023-02-17T18:41:33.454Z,18.40
2023-02-17T18:42:33.447Z,18.40
2023-02-17T18:43:33.438Z,18.43
2023-02-17T18:44:33.421Z,18.39
2023-02-17T18:45:33.437Z,18.41
2023-02-17T18:46:33.479Z,18.42
2023-02-17T18:47:33.413Z,18.40
2023-02-17T18:48:33.396Z,18.43
2023-02-17T18:49:33.394Z,18.43
2023-02-17T18:50:33.403Z,18.48
2023-02-17T18:51:33.376Z,18.39
2023-02-17T18:52:33.354Z,18.44
2023-02-17T18:53:33.373Z,18.41
2023-02-17T18:54:33.366Z,18.41
2023-02-17T18:55:33.380Z,18.48
2023-02-17T18:56:33.370Z,18.43
2023-02-17T18:57:33.367Z,18.48
2023-02-17T18:58:33.369Z,18.44
2023-02-17T18:59:33.393Z,18.46
2023-02-17T19:00:33.349Z,18.40
2023-02-17T19:01:33.358Z,18.47
2023-02-17T19:02:33.322Z,18.43
2023-02-17T19:03:33.316Z,18.43
2023-02-17T19:04:33.311Z,18.44
2023-02-17T19:05:33.297Z,18.46
2023-02-17T19:06:34.751Z,18.41
2023-02-17T19:07:33.312Z,18.47
2023-02-17T19:08:33.271Z,18.43
2023-02-17T19:09:33.258Z,18.46
2023-02-17T19:10:33.244Z,18.44
2023-02-17T19:11:33.276Z,18.50
2023-02-17T19:12:33.230Z,18.47
2023-02-17T19:13:33.236Z,18.49
2023-02-17T19:14:33.255Z,18.44
2023-02-17T19:15:33.247Z,18.50
2023-02-17T19:16:33.233Z,18.47
2023-02-17T19:17:33.210Z,18.46
2023-02-17T19:18:33.201Z,18.47
2023-02-17T19:19:33.196Z,18.44
2023-02-17T19:20:33.179Z,18.46
2023-02-17T19:21:35.300Z,18.50
2023-02-17T19:22:33.169Z,18.46
2023-02-17T19:23:33.180Z,18.49
2023-02-17T19:24:33.175Z,18.50
2023-02-17T19:25:33.178Z,18.53